createdAt,value
2018-08-28T00:00:58.267Z,75.76
2018-08-28T00:01:58.260Z,75.55
2018-08-28T00:02:58.247Z,75.11
2018-08-28T00:03:58.242Z,75.42
2018-08-28T00:04:58.265Z,75.25
2018-08-28T00:05:58.206Z,75.65
2018-08-28T00:06:58.198Z,74.95
2018-08-28T00:07:58.184Z,75.76
2018-08-28T00:08:58.180Z,75.15
2018-08-28T00:09:58.166Z,75.01
2018-08-28T00:10:58.178Z,74.84
2018-08-28T00:11:58.139Z,75.35
2018-08-28T00:12:58.132Z,75.65
2018-08-28T00:13:58.117Z,75.85
2018-08-28T00:14:58.110Z,75.65
2018-08-28T00:15:58.103Z,75.35
2018-08-28T00:16:58.137Z,75.25
2018-08-28T00:17:58.097Z,74.95
2018-08-28T00:18:58.070Z,74.84
2018-08-28T00:19:58.059Z,74.91
2018-08-28T00:20:58.047Z,75.52
2018-08-28T00:21:58.044Z,75.11
2018-08-28T00:22:58.020Z,75.45
2018-08-28T00:23:58.027Z,74.54
2018-08-28T00:24:58.038Z,74.71
2018-08-28T00:25:57.994Z,75.04
2018-08-28T00:26:57.979Z,74.71
2018-08-28T00:27:58.018Z,74.54
2018-08-28T00:28:57.979Z,74.95
2018-08-28T00:29:57.976Z,74.74
2018-08-28T00:30:57.935Z,75.15
2018-08-28T00:31:57.922Z,75.76
2018-08-28T00:32:57.915Z,75.21
2018-08-28T00:33:57.902Z,75.45
2018-08-28T00:34:57.906Z,75.01
2018-08-28T00:35:57.882Z,75.72
2018-08-28T00:36:57.876Z,75.31
2018-08-28T00:37:57.857Z,75.85
2018-08-28T00:38:57.844Z,75.85
2018-08-28T00:39:57.850Z,75.52
2018-08-28T00:40:57.825Z,75.45
2018-08-28T00:41:57.856Z,75.01
2018-08-28T00:42:57.840Z,75.82
2018-08-28T00:43:57.815Z,75.31
2018-08-28T00:44:58.711Z,75.25
2018-08-28T00:45:57.769Z,74.60
2018-08-28T00:46:57.759Z,75.25
2018-08-28T00:47:57.746Z,75.25
2018-08-28T00:48:57.742Z,74.60
2018-08-28T00:49:57.724Z,74.51
2018-08-28T00:50:57.736Z,74.51
2018-08-28T00:51:57.707Z,74.64
2018-08-28T00:52:57.695Z,74.84
2018-08-28T00:53:57.682Z,74.51
2018-08-28T00:54:57.686Z,74.74
2018-08-28T00:55:57.660Z,74.51
2018-08-28T00:56:57.668Z,74.40
2018-08-28T00:57:57.644Z,74.51
2018-08-28T00:58:57.627Z,74.60
2018-08-28T00:59:57.619Z,74.71
2018-08-28T01:00:57.661Z,74.60
2018-08-28T01:01:57.599Z,74.60
2018-08-28T01:02:57.584Z,75.11
2018-08-28T01:03:57.575Z,75.01
2018-08-28T01:04:57.562Z,74.30
2018-08-28T01:05:57.589Z,74.30
2018-08-28T01:06:57.561Z,74.60
2018-08-28T01:07:57.543Z,74.40
2018-08-28T01:08:57.516Z,74.30
2018-08-28T01:09:57.510Z,74.71
2018-08-28T01:10:57.510Z,74.71
2018-08-28T01:11:57.493Z,75.11
2018-08-28T01:12:57.471Z,74.60
2018-08-28T01:13:57.461Z,74.51
2018-08-28T01:14:57.448Z,74.74
2018-08-28T01:15:57.439Z,74.81
2018-08-28T01:16:57.440Z,74.54
2018-08-28T01:17:57.457Z,74.30
2018-08-28T01:18:57.407Z,74.51
2018-08-28T01:19:57.396Z,74.84
2018-08-28T01:20:57.382Z,74.40
2018-08-28T01:21:57.389Z,74.91
2018-08-28T01:22:57.404Z,75.72
2018-08-28T01:23:57.355Z,75.72
2018-08-28T01:24:57.370Z,75.52
2018-08-28T01:25:57.331Z,75.45
2018-08-28T01:26:57.322Z,75.45
2018-08-28T01:27:57.309Z,75.04
2018-08-28T01:28:57.311Z,75.62
2018-08-28T01:29:57.286Z,74.60
2018-08-28T01:30:57.276Z,74.74
2018-08-28T01:31:57.263Z,75.42
2018-08-28T01:32:57.322Z,76.03
2018-08-28T01:33:57.278Z,75.15
2018-08-28T01:34:57.234Z,75.25
2018-08-28T01:35:57.221Z,75.35
2018-08-28T01:36:57.217Z,75.82
2018-08-28T01:37:57.200Z,75.52
2018-08-28T01:38:57.203Z,74.95
2018-08-28T01:39:57.178Z,75.21
2018-08-28T01:40:57.167Z,75.72
2018-08-28T01:41:57.158Z,75.45
2018-08-28T01:42:57.150Z,75.72
2018-08-28T01:43:57.147Z,75.85
2018-08-28T01:44:57.147Z,75.52
2018-08-28T01:45:57.108Z,75.21
2018-08-28T01:46:57.100Z,75.65
2018-08-28T01:47:57.094Z,75.62
2018-08-28T01:48:57.078Z,75.76
2018-08-28T01:50:00.865Z,75.65
2018-08-28T01:50:57.096Z,76.26
2018-08-28T01:51:57.044Z,75.76
2018-08-28T01:52:57.034Z,75.15
2018-08-28T01:53:57.020Z,75.35
2018-08-28T01:54:57.010Z,75.65
2018-08-28T01:55:56.997Z,75.85
2018-08-28T01:56:57.000Z,76.36
2018-08-28T01:57:56.990Z,75.85
2018-08-28T01:58:56.969Z,75.85
2018-08-28T01:59:56.982Z,75.62
2018-08-28T02:00:56.960Z,76.16
2018-08-28T02:01:56.934Z,76.43
2018-08-28T02:02:56.921Z,75.85
2018-08-28T02:03:56.950Z,75.96
2018-08-28T02:04:56.908Z,75.76
2018-08-28T02:05:56.903Z,75.55
2018-08-28T02:06:56.878Z,76.36
2018-08-28T02:07:56.880Z,76.77
2018-08-28T02:08:56.857Z,76.16
2018-08-28T02:09:56.842Z,76.36
2018-08-28T02:10:56.835Z,75.85
2018-08-28T02:11:56.836Z,75.85
2018-08-28T02:12:56.808Z,75.76
2018-08-28T02:13:56.802Z,75.85
2018-08-28T02:14:56.789Z,75.76
2018-08-28T02:15:56.778Z,76.16
2018-08-28T02:16:56.787Z,77.07
2018-08-28T02:17:56.756Z,76.97
2018-08-28T02:18:56.746Z,76.87
2018-08-28T02:19:56.753Z,76.46
2018-08-28T02:20:56.752Z,76.36
2018-08-28T02:21:56.713Z,77.07
2018-08-28T02:22:56.716Z,77.37
2018-08-28T02:23:56.691Z,77.28
2018-08-28T02:24:56.678Z,76.97
2018-08-28T02:25:56.683Z,76.97
2018-08-28T02:26:56.661Z,76.77
2018-08-28T02:27:56.671Z,76.87
2018-08-28T02:28:56.637Z,76.46
2018-08-28T02:29:56.624Z,77.37
2018-08-28T02:30:56.614Z,76.46
2018-08-28T02:31:56.601Z,77.28
2018-08-28T02:32:56.591Z,76.77
2018-08-28T02:33:56.601Z,77.07
2018-08-28T02:34:56.599Z,77.07
2018-08-28T02:35:56.621Z,77.37
2018-08-28T02:36:56.545Z,76.46
2018-08-28T02:37:56.555Z,76.87
2018-08-28T02:38:56.527Z,77.37
2018-08-28T02:39:56.529Z,77.17
2018-08-28T02:40:56.502Z,77.17
2018-08-28T02:41:56.490Z,77.28
2018-08-28T02:42:56.495Z,77.37
2018-08-28T02:43:56.470Z,77.31
2018-08-28T02:44:56.487Z,77.17
2018-08-28T02:45:56.448Z,77.37
2018-08-28T02:46:56.435Z,76.87
2018-08-28T02:47:56.429Z,77.28
2018-08-28T02:48:56.418Z,77.11
2018-08-28T02:49:56.406Z,77.31
2018-08-28T02:50:56.411Z,77.48
2018-08-28T02:51:56.381Z,77.51
2018-08-28T02:52:56.385Z,77.21
2018-08-28T02:53:56.379Z,77.82
2018-08-28T02:54:56.364Z,77.61
2018-08-28T02:55:56.336Z,77.21
2018-08-28T02:56:56.328Z,77.82
2018-08-28T02:57:56.318Z,78.59
2018-08-28T02:58:56.303Z,78.22
2018-08-28T02:59:56.310Z,77.21
2018-08-28T03:00:56.308Z,77.28
2018-08-28T03:01:56.270Z,77.82
2018-08-28T03:02:56.315Z,77.58
2018-08-28T03:03:56.247Z,78.42
2018-08-28T03:04:56.240Z,77.58
2018-08-28T03:05:56.240Z,77.72
2018-08-28T03:06:56.219Z,76.90
2018-08-28T03:07:56.209Z,77.01
2018-08-28T03:08:56.218Z,77.72
2018-08-28T03:09:56.190Z,77.72
2018-08-28T03:10:56.173Z,78.02
2018-08-28T03:11:56.163Z,78.22
2018-08-28T03:12:56.175Z,77.82
2018-08-28T03:13:56.137Z,78.12
2018-08-28T03:14:56.127Z,78.33
2018-08-28T03:15:56.142Z,78.12
2018-08-28T03:16:56.112Z,78.22
2018-08-28T03:17:56.097Z,78.02
2018-08-28T03:18:56.182Z,78.12
2018-08-28T03:19:56.072Z,78.02
2018-08-28T03:20:56.061Z,78.73
2018-08-28T03:21:56.057Z,78.12
2018-08-28T03:22:56.041Z,78.39
2018-08-28T03:23:56.029Z,78.83
2018-08-28T03:24:56.036Z,78.42
2018-08-28T03:25:56.024Z,78.12
2018-08-28T03:26:56.010Z,78.22
2018-08-28T03:27:56.011Z,78.02
2018-08-28T03:28:56.022Z,78.22
2018-08-28T03:29:55.966Z,78.73
2018-08-28T03:30:55.953Z,78.73
2018-08-28T03:31:55.952Z,78.42
2018-08-28T03:32:55.929Z,79.03
2018-08-28T03:33:55.919Z,78.12
2018-08-28T03:34:55.933Z,78.22
2018-08-28T03:35:55.895Z,78.53
2018-08-28T03:36:55.886Z,78.02
2018-08-28T03:37:55.876Z,78.63
2018-08-28T03:38:55.865Z,78.63
2018-08-28T03:39:55.853Z,78.42
2018-08-28T03:40:57.739Z,78.22
2018-08-28T03:41:55.828Z,78.33
2018-08-28T03:42:55.832Z,78.02
2018-08-28T03:43:55.814Z,78.83
2018-08-28T03:44:55.799Z,78.83
2018-08-28T03:45:55.788Z,79.03
2018-08-28T03:46:55.847Z,78.53
2018-08-28T03:47:55.765Z,78.53
2018-08-28T03:48:55.764Z,78.33
2018-08-28T03:49:55.759Z,78.73
2018-08-28T03:50:55.731Z,78.83
2018-08-28T03:51:55.721Z,78.93
2018-08-28T03:52:55.708Z,78.53
2018-08-28T03:53:55.730Z,78.63
2018-08-28T03:54:55.687Z,78.02
2018-08-28T03:55:55.711Z,78.33
2018-08-28T03:56:55.683Z,78.12
2018-08-28T03:57:55.656Z,78.63
2018-08-28T03:58:55.645Z,78.53
2018-08-28T03:59:55.630Z,78.53
2018-08-28T04:00:55.623Z,78.53
2018-08-28T04:01:55.626Z,78.53
2018-08-28T04:02:55.600Z,78.53
2018-08-28T04:03:55.585Z,79.13
2018-08-28T04:04:55.577Z,79.64
2018-08-28T04:05:55.606Z,79.54
2018-08-28T04:06:55.555Z,79.34
2018-08-28T04:07:55.541Z,78.97
2018-08-28T04:08:55.534Z,78.63
2018-08-28T04:09:55.522Z,79.03
2018-08-28T04:10:55.515Z,79.03
2018-08-28T04:11:55.537Z,79.13
2018-08-28T04:12:55.491Z,79.85
2018-08-28T04:13:55.477Z,79.85
2018-08-28T04:14:55.465Z,78.63
2018-08-28T04:15:55.452Z,78.46
2018-08-28T04:16:55.457Z,78.53
2018-08-28T04:17:55.458Z,78.26
2018-08-28T04:18:55.420Z,78.26
2018-08-28T04:19:55.406Z,79.07
2018-08-28T04:20:55.416Z,78.56
2018-08-28T04:21:55.384Z,78.56
2018-08-28T04:22:55.449Z,79.17
2018-08-28T04:23:55.416Z,79.68
2018-08-28T04:24:55.353Z,79.17
2018-08-28T04:25:55.342Z,79.58
2018-08-28T04:26:55.333Z,79.68
2018-08-28T04:27:55.318Z,79.38
2018-08-28T04:28:55.313Z,79.78
2018-08-28T04:29:55.310Z,79.58
2018-08-28T04:30:55.425Z,79.58
2018-08-28T04:31:55.275Z,79.58
2018-08-28T04:32:55.267Z,79.07
2018-08-28T04:33:55.272Z,79.07
2018-08-28T04:34:55.261Z,79.85
2018-08-28T04:35:55.232Z,78.66
2018-08-28T04:36:55.223Z,79.07
2018-08-28T04:37:55.209Z,79.64
2018-08-28T04:38:55.199Z,79.68
2018-08-28T04:39:55.186Z,79.98
2018-08-28T04:40:55.194Z,80.19
2018-08-28T04:41:55.329Z,80.29
2018-08-28T04:42:55.153Z,80.29
2018-08-28T04:43:55.144Z,79.98
2018-08-28T04:44:55.136Z,80.59
2018-08-28T04:45:55.145Z,80.49
2018-08-28T04:46:55.147Z,80.59
2018-08-28T04:47:55.101Z,80.90
2018-08-28T04:48:55.102Z,80.69
2018-08-28T04:49:55.078Z,80.99
2018-08-28T04:50:55.064Z,80.69
2018-08-28T04:51:55.055Z,80.90
2018-08-28T04:52:55.056Z,80.90
2018-08-28T04:53:55.035Z,80.59
2018-08-28T04:54:55.055Z,80.69
2018-08-28T04:55:55.050Z,80.59
2018-08-28T04:56:55.000Z,81.20
2018-08-28T04:57:54.990Z,80.90
2018-08-28T04:58:54.978Z,80.90
2018-08-28T04:59:54.974Z,80.90
2018-08-28T05:00:55.031Z,80.69
2018-08-28T05:01:54.947Z,80.49
2018-08-28T05:02:54.932Z,80.45
2018-08-28T05:03:54.918Z,80.79
2018-08-28T05:04:54.907Z,80.65
2018-08-28T05:05:54.908Z,80.55
2018-08-28T05:06:54.886Z,80.69
2018-08-28T05:07:54.886Z,80.90
2018-08-28T05:08:54.869Z,80.45
2018-08-28T05:09:54.910Z,80.45
2018-08-28T05:10:54.924Z,80.90
2018-08-28T05:11:54.930Z,79.85
2018-08-28T05:12:54.863Z,79.94
2018-08-28T05:13:54.812Z,79.64
2018-08-28T05:14:54.801Z,79.94
2018-08-28T05:15:54.808Z,79.74
2018-08-28T05:16:54.777Z,80.15
2018-08-28T05:17:54.764Z,80.25
2018-08-28T05:18:54.841Z,80.96
2018-08-28T05:19:54.744Z,81.06
2018-08-28T05:20:54.734Z,80.96
2018-08-28T05:21:54.836Z,79.94
2018-08-28T05:22:54.712Z,80.35
2018-08-28T05:23:54.707Z,80.86
2018-08-28T05:24:54.697Z,80.96
2018-08-28T05:25:54.728Z,80.86
2018-08-28T05:26:54.668Z,81.16
2018-08-28T05:27:54.659Z,80.45
2018-08-28T05:28:54.644Z,79.03
2018-08-28T05:29:54.693Z,78.93
2018-08-28T05:30:54.636Z,79.54
2018-08-28T05:31:54.704Z,78.42
2018-08-28T05:32:54.661Z,79.64
2018-08-28T05:33:54.589Z,79.94
2018-08-28T05:34:54.617Z,80.96
2018-08-28T05:35:54.589Z,81.77
2018-08-28T05:36:54.568Z,78.73
2018-08-28T05:37:54.620Z,79.03
2018-08-28T05:38:54.533Z,79.03
2018-08-28T05:39:54.523Z,80.05
2018-08-28T05:40:54.603Z,80.65
2018-08-28T05:41:54.625Z,80.15
2018-08-28T05:42:54.491Z,79.03
2018-08-28T05:43:54.479Z,79.00
2018-08-28T05:44:54.466Z,78.89
2018-08-28T05:45:54.487Z,78.53
2018-08-28T05:46:54.543Z,78.89
2018-08-28T05:47:54.432Z,78.39
2018-08-28T05:48:54.423Z,77.48
2018-08-28T05:49:54.410Z,78.19
2018-08-28T05:50:54.415Z,78.28
2018-08-28T05:51:54.388Z,78.19
2018-08-28T05:52:54.376Z,77.98
2018-08-28T05:53:54.365Z,78.89
2018-08-28T05:54:54.524Z,78.79
2018-08-28T05:55:54.560Z,78.28
2018-08-28T05:56:54.335Z,78.69
2018-08-28T05:57:54.321Z,78.49
2018-08-28T05:58:54.316Z,77.98
2018-08-28T05:59:54.303Z,78.28
2018-08-28T06:00:54.367Z,79.10
2018-08-28T06:01:54.307Z,79.00
2018-08-28T06:02:54.278Z,78.79
2018-08-28T06:03:54.257Z,78.39
2018-08-28T06:04:54.250Z,79.50
2018-08-28T06:05:54.238Z,78.05
2018-08-28T06:06:54.225Z,78.05
2018-08-28T06:07:54.225Z,77.64
2018-08-28T06:08:54.269Z,77.34
2018-08-28T06:09:54.191Z,77.03
2018-08-28T06:10:54.181Z,77.14
2018-08-28T06:11:54.171Z,76.73
2018-08-28T06:12:54.172Z,77.34
2018-08-28T06:13:54.165Z,77.44
2018-08-28T06:14:54.273Z,76.73
2018-08-28T06:15:54.125Z,76.43
2018-08-28T06:16:54.117Z,76.63
2018-08-28T06:17:54.149Z,76.32
2018-08-28T06:18:54.168Z,76.93
2018-08-28T06:19:54.083Z,76.93
2018-08-28T06:20:54.074Z,77.34
2018-08-28T06:21:54.063Z,76.73
2018-08-28T06:22:54.067Z,76.67
2018-08-28T06:23:54.055Z,77.03
2018-08-28T06:24:54.089Z,76.73
2018-08-28T06:25:54.024Z,76.73
2018-08-28T06:26:54.059Z,76.03
2018-08-28T06:27:54.000Z,76.83
2018-08-28T06:28:53.990Z,77.61
2018-08-28T06:29:53.990Z,78.15
2018-08-28T06:30:54.014Z,76.70
2018-08-28T06:31:53.958Z,76.70
2018-08-28T06:32:53.943Z,77.61
2018-08-28T06:33:53.984Z,77.40
2018-08-28T06:34:53.926Z,77.30
2018-08-28T06:35:53.960Z,75.89
2018-08-28T06:36:53.905Z,75.79
2018-08-28T06:37:53.891Z,75.99
2018-08-28T06:38:53.877Z,75.75
2018-08-28T06:39:53.883Z,77.30
2018-08-28T06:40:53.856Z,76.15
2018-08-28T06:41:53.841Z,76.97
2018-08-28T06:42:53.852Z,76.46
2018-08-28T06:43:53.910Z,75.85
2018-08-28T06:44:53.918Z,77.23
2018-08-28T06:45:53.834Z,75.61
2018-08-28T06:46:53.796Z,75.61
2018-08-28T06:47:53.777Z,75.61
2018-08-28T06:48:53.764Z,75.81
2018-08-28T06:49:53.782Z,76.62
2018-08-28T06:50:53.758Z,77.64
2018-08-28T06:51:53.729Z,76.93
2018-08-28T06:52:53.724Z,75.71
2018-08-28T06:53:53.712Z,76.62
2018-08-28T06:54:53.696Z,76.39
2018-08-28T06:55:53.711Z,75.17
2018-08-28T06:56:53.759Z,75.37
2018-08-28T06:57:53.707Z,75.64
2018-08-28T06:58:53.695Z,74.46
2018-08-28T06:59:53.640Z,74.57
2018-08-28T07:00:53.633Z,74.57
2018-08-28T07:01:53.637Z,74.46
2018-08-28T07:02:53.733Z,74.16
2018-08-28T07:03:53.674Z,74.46
2018-08-28T07:04:53.589Z,75.57
2018-08-28T07:05:53.641Z,72.95
2018-08-28T07:06:53.568Z,73.86
2018-08-28T07:07:53.609Z,74.57
2018-08-28T07:08:53.545Z,74.87
2018-08-28T07:09:53.578Z,74.97
2018-08-28T07:10:53.525Z,74.84
2018-08-28T07:11:53.533Z,75.13
2018-08-28T07:12:53.525Z,75.64
2018-08-28T07:13:53.488Z,74.53
2018-08-28T07:14:53.478Z,74.43
2018-08-28T07:15:53.468Z,74.22
2018-08-28T07:16:53.539Z,74.33
2018-08-28T07:17:53.448Z,74.43
2018-08-28T07:18:53.514Z,74.22
2018-08-28T07:19:53.426Z,74.43
2018-08-28T07:20:53.414Z,74.53
2018-08-28T07:21:53.405Z,74.22
2018-08-28T07:22:53.422Z,74.22
2018-08-28T07:23:53.419Z,74.29
2018-08-28T07:24:53.371Z,74.43
2018-08-28T07:25:53.380Z,74.53
2018-08-28T07:26:53.397Z,75.24
2018-08-28T07:27:53.339Z,75.04
2018-08-28T07:28:53.341Z,74.84
2018-08-28T07:29:53.318Z,74.53
2018-08-28T07:30:53.331Z,75.24
2018-08-28T07:31:53.394Z,74.73
2018-08-28T07:32:53.286Z,74.60
2018-08-28T07:33:53.276Z,74.49
2018-08-28T07:34:53.302Z,74.60
2018-08-28T07:35:53.251Z,74.49
2018-08-28T07:36:53.334Z,74.53
2018-08-28T07:37:53.232Z,74.09
2018-08-28T07:38:53.216Z,74.40
2018-08-28T07:39:53.213Z,75.51
2018-08-28T07:40:53.271Z,74.29
2018-08-28T07:41:53.200Z,73.99
2018-08-28T07:42:53.372Z,74.49
2018-08-28T07:43:53.163Z,73.49
2018-08-28T07:44:53.155Z,73.89
2018-08-28T07:45:53.142Z,73.79
2018-08-28T07:46:53.133Z,73.69
2018-08-28T07:47:53.122Z,73.79
2018-08-28T07:48:53.132Z,74.49
2018-08-28T07:49:53.220Z,73.99
2018-08-28T07:50:53.088Z,73.49
2018-08-28T07:51:53.084Z,74.19
2018-08-28T07:52:53.106Z,74.19
2018-08-28T07:53:53.165Z,73.85
2018-08-28T07:54:53.046Z,73.35
2018-08-28T07:55:53.034Z,74.26
2018-08-28T07:56:53.025Z,73.65
2018-08-28T07:57:53.010Z,73.45
2018-08-28T07:58:53.004Z,73.75
2018-08-28T07:59:53.002Z,73.05
2018-08-28T08:00:52.983Z,73.45
2018-08-28T08:01:53.012Z,73.42
2018-08-28T08:02:53.008Z,73.62
2018-08-28T08:03:52.975Z,73.32
2018-08-28T08:04:52.952Z,73.32
2018-08-28T08:05:52.928Z,72.71
2018-08-28T08:06:52.928Z,72.88
2018-08-28T08:07:52.906Z,73.38
2018-08-28T08:08:52.895Z,73.38
2018-08-28T08:09:52.881Z,73.68
2018-08-28T08:10:52.885Z,72.98
2018-08-28T08:11:52.859Z,73.48
2018-08-28T08:12:52.852Z,72.27
2018-08-28T08:13:52.874Z,72.47
2018-08-28T08:14:52.843Z,72.24
2018-08-28T08:15:52.818Z,72.44
2018-08-28T08:16:52.804Z,71.84
2018-08-28T08:17:52.796Z,70.93
2018-08-28T08:18:52.787Z,71.94
2018-08-28T08:19:52.813Z,71.73
2018-08-28T08:20:52.779Z,71.44
2018-08-28T08:21:52.753Z,71.20
2018-08-28T08:22:52.754Z,71.64
2018-08-28T08:23:52.729Z,71.40
2018-08-28T08:24:52.719Z,70.59
2018-08-28T08:25:52.721Z,70.19
2018-08-28T08:26:52.696Z,71.30
2018-08-28T08:27:52.759Z,70.36
2018-08-28T08:28:52.678Z,71.26
2018-08-28T08:29:52.663Z,69.85
2018-08-28T08:30:52.694Z,69.45
2018-08-28T08:31:52.645Z,69.96
2018-08-28T08:32:52.628Z,69.76
2018-08-28T08:33:52.618Z,70.16
2018-08-28T08:34:52.607Z,70.56
2018-08-28T08:35:52.642Z,70.86
2018-08-28T08:36:52.585Z,70.56
2018-08-28T08:37:52.576Z,69.85
2018-08-28T08:38:52.569Z,70.46
2018-08-28T08:39:52.630Z,70.66
2018-08-28T08:40:52.582Z,70.43
2018-08-28T08:41:52.596Z,70.53
2018-08-28T08:42:52.520Z,70.23
2018-08-28T08:43:52.509Z,69.92
2018-08-28T08:44:52.502Z,69.69
2018-08-28T08:45:52.524Z,69.29
2018-08-28T08:46:52.476Z,69.69
2018-08-28T08:47:52.481Z,69.45
2018-08-28T08:48:52.459Z,68.75
2018-08-28T08:49:52.442Z,68.72
2018-08-28T08:50:52.432Z,67.01
2018-08-28T08:51:52.436Z,66.91
2018-08-28T08:52:52.412Z,66.67
2018-08-28T08:53:52.400Z,66.64
2018-08-28T08:54:52.508Z,67.28
2018-08-28T08:55:52.378Z,66.85
2018-08-28T08:56:52.382Z,66.44
2018-08-28T08:57:52.371Z,66.21
2018-08-28T08:58:52.368Z,66.31
2018-08-28T08:59:52.368Z,66.82
2018-08-28T09:00:52.341Z,66.78
2018-08-28T09:01:52.356Z,66.15
2018-08-28T09:02:52.342Z,65.25
2018-08-28T09:03:52.378Z,65.25
2018-08-28T09:04:52.285Z,64.42
2018-08-28T09:05:52.275Z,63.51
2018-08-28T09:06:52.260Z,64.01
2018-08-28T09:07:52.248Z,63.21
2018-08-28T09:08:52.261Z,64.62
2018-08-28T09:09:52.230Z,64.31
2018-08-28T09:10:52.215Z,63.81
2018-08-28T09:11:52.206Z,63.89
2018-08-28T09:12:52.259Z,63.28
2018-08-28T09:13:52.184Z,62.78
2018-08-28T09:14:52.186Z,62.28
2018-08-28T09:15:52.161Z,62.68
2018-08-28T09:16:52.175Z,63.18
2018-08-28T09:17:52.140Z,61.78
2018-08-28T09:18:52.166Z,63.06
2018-08-28T09:19:52.144Z,62.55
2018-08-28T09:20:52.107Z,63.62
2018-08-28T09:21:52.152Z,62.52
2018-08-28T09:22:52.085Z,61.92
2018-08-28T09:23:52.077Z,62.42
2018-08-28T09:24:52.081Z,62.19
2018-08-28T09:25:52.057Z,62.19
2018-08-28T09:26:52.045Z,59.62
2018-08-28T09:27:52.043Z,60.95
2018-08-28T09:28:52.028Z,60.85
2018-08-28T09:29:52.024Z,60.78
2018-08-28T09:30:52.001Z,61.71
2018-08-28T09:31:51.993Z,62.94
2018-08-28T09:32:51.982Z,62.87
2018-08-28T09:33:51.969Z,64.28
2018-08-28T09:34:51.979Z,64.95
2018-08-28T09:35:51.947Z,64.01
2018-08-28T09:36:51.940Z,63.08
2018-08-28T09:37:51.945Z,62.35
2018-08-28T09:38:52.007Z,61.25
2018-08-28T09:39:51.966Z,62.55
2018-08-28T09:40:51.900Z,62.12
2018-08-28T09:41:51.885Z,60.59
2018-08-28T09:42:51.872Z,60.69
2018-08-28T09:43:51.994Z,58.97
2018-08-28T09:44:51.855Z,59.56
2018-08-28T09:45:51.844Z,59.77
2018-08-28T09:46:51.830Z,59.56
2018-08-28T09:47:51.836Z,58.76
2018-08-28T09:48:51.809Z,60.46
2018-08-28T09:49:51.831Z,59.17
2018-08-28T09:50:51.837Z,59.56
2018-08-28T09:51:51.782Z,58.67
2018-08-28T09:52:51.767Z,58.47
2018-08-28T09:53:51.763Z,58.19
2018-08-28T09:54:51.747Z,58.69
2018-08-28T09:55:51.750Z,58.89
2018-08-28T09:56:51.724Z,58.69
2018-08-28T09:57:51.772Z,59.30
2018-08-28T09:58:51.704Z,59.19
2018-08-28T09:59:51.691Z,60.66
2018-08-28T10:00:51.698Z,59.47
2018-08-28T10:01:51.670Z,58.97
2018-08-28T10:02:51.661Z,60.27
2018-08-28T10:03:51.652Z,59.99
2018-08-28T10:04:51.700Z,60.29
2018-08-28T10:05:51.645Z,60.19
2018-08-28T10:06:51.620Z,59.32
2018-08-28T10:07:51.643Z,59.52
2018-08-28T10:08:51.613Z,61.05
2018-08-28T10:09:51.588Z,60.92
2018-08-28T10:10:51.665Z,61.02
2018-08-28T10:11:51.580Z,61.12
2018-08-28T10:12:51.555Z,60.32
2018-08-28T10:13:51.545Z,59.92
2018-08-28T10:14:51.537Z,60.52
2018-08-28T10:15:51.523Z,60.72
2018-08-28T10:16:51.531Z,60.22
2018-08-28T10:17:51.514Z,60.12
2018-08-28T10:18:51.492Z,59.42
2018-08-28T10:19:51.479Z,60.62
2018-08-28T10:20:51.470Z,59.65
2018-08-28T10:21:51.469Z,60.58
2018-08-28T10:22:51.502Z,61.78
2018-08-28T10:23:51.435Z,61.81
2018-08-28T10:24:51.425Z,63.21
2018-08-28T10:25:51.413Z,63.01
2018-08-28T10:26:51.401Z,63.28
2018-08-28T10:27:51.392Z,61.68
2018-08-28T10:28:51.393Z,61.48
2018-08-28T10:29:51.423Z,62.28
2018-08-28T10:30:51.357Z,61.68
2018-08-28T10:31:51.349Z,61.65
2018-08-28T10:32:51.365Z,62.25
2018-08-28T10:33:51.345Z,62.95
2018-08-28T10:34:51.316Z,62.15
2018-08-28T10:35:51.306Z,60.85
2018-08-28T10:36:51.297Z,60.85
2018-08-28T10:37:51.294Z,60.55
2018-08-28T10:38:51.285Z,62.45
2018-08-28T10:39:51.354Z,60.85
2018-08-28T10:40:51.267Z,60.75
2018-08-28T10:41:51.242Z,59.45
2018-08-28T10:42:51.231Z,60.35
2018-08-28T10:43:51.220Z,59.35
2018-08-28T10:44:51.221Z,59.35
2018-08-28T10:45:51.228Z,59.75
2018-08-28T10:46:51.429Z,59.45
2018-08-28T10:47:51.176Z,60.88
2018-08-28T10:48:51.164Z,60.88
2018-08-28T10:49:51.230Z,61.68
2018-08-28T10:50:51.146Z,61.48
2018-08-28T10:51:51.137Z,61.68
2018-08-28T10:52:51.166Z,61.98
2018-08-28T10:53:51.116Z,61.78
2018-08-28T10:54:51.213Z,62.28
2018-08-28T10:55:51.094Z,62.11
2018-08-28T10:56:51.206Z,61.91
2018-08-28T10:57:51.069Z,61.31
2018-08-28T10:58:51.260Z,62.11
2018-08-28T10:59:51.049Z,63.04
2018-08-28T11:00:51.059Z,62.64
2018-08-28T11:01:51.029Z,62.94
2018-08-28T11:02:51.020Z,63.34
2018-08-28T11:03:51.008Z,63.95
2018-08-28T11:04:50.996Z,63.34
2018-08-28T11:05:50.987Z,62.94
2018-08-28T11:06:50.996Z,61.94
2018-08-28T11:07:51.066Z,62.64
2018-08-28T11:08:51.007Z,62.54
2018-08-28T11:09:50.943Z,62.34
2018-08-28T11:10:50.930Z,62.04
2018-08-28T11:11:50.918Z,62.37
2018-08-28T11:12:50.923Z,62.64
2018-08-28T11:13:50.898Z,63.04
2018-08-28T11:14:50.888Z,63.04
2018-08-28T11:15:50.874Z,62.57
2018-08-28T11:16:50.877Z,62.47
2018-08-28T11:17:51.101Z,62.97
2018-08-28T11:18:50.847Z,63.37
2018-08-28T11:19:50.833Z,62.97
2018-08-28T11:20:50.823Z,63.10
2018-08-28T11:21:50.809Z,64.21
2018-08-28T11:22:50.860Z,64.07
2018-08-28T11:23:50.807Z,64.11
2018-08-28T11:24:50.891Z,64.01
2018-08-28T11:25:50.855Z,64.11
2018-08-28T11:26:50.754Z,64.18
2018-08-28T11:27:50.744Z,63.81
2018-08-28T11:28:50.734Z,63.40
2018-08-28T11:29:50.736Z,64.51
2018-08-28T11:30:50.710Z,65.01
2018-08-28T11:31:50.701Z,64.61
2018-08-28T11:32:50.696Z,64.40
2018-08-28T11:33:50.700Z,64.81
2018-08-28T11:34:50.665Z,64.61
2018-08-28T11:35:50.741Z,64.61
2018-08-28T11:36:50.756Z,65.51
2018-08-28T11:37:50.632Z,64.91
2018-08-28T11:38:50.622Z,65.31
2018-08-28T11:39:50.625Z,65.01
2018-08-28T11:40:50.603Z,64.11
2018-08-28T11:41:50.597Z,64.51
2018-08-28T11:42:50.609Z,66.01
2018-08-28T11:43:50.570Z,65.71
2018-08-28T11:44:51.213Z,64.94
2018-08-28T11:45:50.546Z,65.04
2018-08-28T11:46:50.536Z,65.44
2018-08-28T11:47:50.528Z,65.74
2018-08-28T11:48:50.910Z,65.41
2018-08-28T11:49:50.525Z,66.01
2018-08-28T11:50:50.541Z,65.21
2018-08-28T11:51:50.527Z,66.31
2018-08-28T11:52:50.471Z,65.31
2018-08-28T11:53:50.462Z,65.41
2018-08-28T11:54:50.452Z,64.21
2018-08-28T11:55:50.453Z,64.51
2018-08-28T11:56:50.520Z,64.71
2018-08-28T11:57:50.414Z,63.81
2018-08-28T11:58:50.404Z,64.51
2018-08-28T11:59:50.395Z,65.11
2018-08-28T12:00:50.420Z,63.90
2018-08-28T12:01:50.407Z,64.31
2018-08-28T12:02:50.359Z,64.11
2018-08-28T12:03:50.427Z,65.41
2018-08-28T12:04:50.402Z,64.28
2018-08-28T12:05:50.328Z,62.27
2018-08-28T12:06:50.405Z,62.57
2018-08-28T12:07:50.474Z,63.67
2018-08-28T12:08:50.293Z,62.97
2018-08-28T12:09:50.358Z,62.64
2018-08-28T12:10:50.285Z,62.24
2018-08-28T12:11:50.261Z,61.44
2018-08-28T12:12:50.251Z,61.94
2018-08-28T12:13:50.257Z,62.14
2018-08-28T12:14:50.230Z,62.14
2018-08-28T12:15:50.219Z,62.34
2018-08-28T12:16:50.314Z,62.24
2018-08-28T12:17:50.199Z,61.44
2018-08-28T12:18:50.187Z,61.04
2018-08-28T12:19:50.177Z,61.24
2018-08-28T12:20:50.226Z,61.64
2018-08-28T12:21:50.161Z,61.14
2018-08-28T12:22:50.161Z,60.84
2018-08-28T12:23:50.145Z,62.04
2018-08-28T12:24:50.122Z,61.84
2018-08-28T12:25:50.112Z,61.94
2018-08-28T12:26:50.127Z,60.94
2018-08-28T12:27:50.106Z,60.84
2018-08-28T12:28:50.201Z,61.04
2018-08-28T12:29:50.075Z,60.53
2018-08-28T12:30:50.145Z,61.04
2018-08-28T12:31:50.049Z,60.64
2018-08-28T12:32:50.168Z,62.24
2018-08-28T12:33:50.023Z,61.84
2018-08-28T12:34:50.016Z,62.24
2018-08-28T12:35:50.040Z,62.41
2018-08-28T12:36:50.022Z,63.34
2018-08-28T12:37:50.149Z,61.21
2018-08-28T12:38:50.021Z,61.21
2018-08-28T12:39:50.019Z,59.91
2018-08-28T12:40:49.967Z,60.41
2018-08-28T12:41:49.993Z,61.51
2018-08-28T12:42:49.931Z,60.61
2018-08-28T12:43:50.023Z,61.01
2018-08-28T12:44:49.911Z,59.50
2018-08-28T12:45:50.028Z,59.70
2018-08-28T12:46:49.939Z,59.61
2018-08-28T12:47:49.880Z,58.81
2018-08-28T12:48:49.868Z,59.00
2018-08-28T12:49:49.856Z,59.41
2018-08-28T12:50:49.948Z,59.31
2018-08-28T12:51:49.934Z,60.71
2018-08-28T12:52:49.824Z,59.50